sensor_id;sensor_type;location;lat;lon;timestamp;temperature;humidity
43810;DHT22;29440;48.208;11.162;2024-03-02T00:01:54;6.10;99.90
43810;DHT22;29440;48.208;11.162;2024-03-02T00:04:19;6.10;99.90
43810;DHT22;29440;48.208;11.162;2024-03-02T00:06:45;6.10;99.90
43810;DHT22;29440;48.208;11.162;2024-03-02T00:09:11;6.10;99.90
43810;DHT22;29440;48.208;11.162;2024-03-02T00:11:38;6.10;99.90
43810;DHT22;29440;48.208;11.162;2024-03-02T00:14:04;6.10;99.90
43810;DHT22;29440;48.208;11.162;2024-03-02T00:16:33;6.10;99.90
43810;DHT22;29440;48.208;11.162;2024-03-02T00:19:03;6.10;99.90
43810;DHT22;29440;48.208;11.162;2024-03-02T00:21:30;6.10;99.90
43810;DHT22;29440;48.208;11.162;2024-03-02T00:23:56;6.10;99.90
43810;DHT22;29440;48.208;11.162;2024-03-02T00:26:22;6.10;99.90
43810;DHT22;29440;48.208;11.162;2024-03-02T00:28:48;6.10;99.90
43810;DHT22;29440;48.208;11.162;2024-03-02T00:31:16;6.00;99.90
43810;DHT22;29440;48.208;11.162;2024-03-02T00:33:47;6.10;99.90
43810;DHT22;29440;48.208;11.162;2024-03-02T00:36:22;6.00;99.90
43810;DHT22;29440;48.208;11.162;2024-03-02T00:38:51;6.00;99.90
43810;DHT22;29440;48.208;11.162;2024-03-02T00:41:27;6.00;99.90
43810;DHT22;29440;48.208;11.162;2024-03-02T00:44:01;6.10;99.90
43810;DHT22;29440;48.208;11.162;2024-03-02T00:46:33;6.10;99.90
43810;DHT22;29440;48.208;11.162;2024-03-02T00:49:22;6.00;99.90
43810;DHT22;29440;48.208;11.162;2024-03-02T00:51:52;6.10;99.90
43810;DHT22;29440;48.208;11.162;2024-03-02T00:54:26;6.00;99.90
43810;DHT22;29440;48.208;11.162;2024-03-02T00:56:52;6.10;99.90
43810;DHT22;29440;48.208;11.162;2024-03-02T00:59:21;6.00;99.90
43810;DHT22;29440;48.208;11.162;2024-03-02T01:01:48;6.10;99.90
43810;DHT22;29440;48.208;11.162;2024-03-02T01:04:14;6.00;99.90
43810;DHT22;29440;48.208;11.162;2024-03-02T01:06:41;6.00;99.90
43810;DHT22;29440;48.208;11.162;2024-03-02T01:09:07;6.10;99.90
43810;DHT22;29440;48.208;11.162;2024-03-02T01:11:33;6.10;99.90
43810;DHT22;29440;48.208;11.162;2024-03-02T01:13:58;6.10;99.90
43810;DHT22;29440;48.208;11.162;2024-03-02T01:16:24;6.10;99.90
43810;DHT22;29440;48.208;11.162;2024-03-02T01:18:50;6.10;99.90
43810;DHT22;29440;48.208;11.162;2024-03-02T01:21:16;6.10;99.90
43810;DHT22;29440;48.208;11.162;2024-03-02T01:23:41;6.20;99.90
43810;DHT22;29440;48.208;11.162;2024-03-02T01:26:07;6.10;99.90
43810;DHT22;29440;48.208;11.162;2024-03-02T01:28:34;6.00;99.90
43810;DHT22;29440;48.208;11.162;2024-03-02T01:30:59;5.90;99.90
43810;DHT22;29440;48.208;11.162;2024-03-02T01:33:25;5.90;99.90
43810;DHT22;29440;48.208;11.162;2024-03-02T01:35:50;5.90;99.90
43810;DHT22;29440;48.208;11.162;2024-03-02T01:38:16;5.90;99.90
43810;DHT22;29440;48.208;11.162;2024-03-02T01:40:42;5.90;99.90
43810;DHT22;29440;48.208;11.162;2024-03-02T01:43:09;5.80;99.90
43810;DHT22;29440;48.208;11.162;2024-03-02T01:45:35;5.80;99.90
43810;DHT22;29440;48.208;11.162;2024-03-02T01:48:06;5.80;99.90
43810;DHT22;29440;48.208;11.162;2024-03-02T01:50:35;5.80;99.90
43810;DHT22;29440;48.208;11.162;2024-03-02T01:53:01;5.90;99.90
43810;DHT22;29440;48.208;11.162;2024-03-02T01:55:30;5.90;99.90
43810;DHT22;29440;48.208;11.162;2024-03-02T01:57:56;5.90;99.90
43810;DHT22;29440;48.208;11.162;2024-03-02T02:00:22;5.80;99.90
43810;DHT22;29440;48.208;11.162;2024-03-02T02:02:50;5.80;99.90
43810;DHT22;29440;48.208;11.162;2024-03-02T02:05:16;5.90;99.90
43810;DHT22;29440;48.208;11.162;2024-03-02T02:07:41;5.70;99.90
43810;DHT22;29440;48.208;11.162;2024-03-02T02:10:09;5.80;99.90
43810;DHT22;29440;48.208;11.162;2024-03-02T02:12:35;5.80;99.90
43810;DHT22;29440;48.208;11.162;2024-03-02T02:15:04;5.80;99.90
43810;DHT22;29440;48.208;11.162;2024-03-02T02:17:46;5.80;99.90
43810;DHT22;29440;48.208;11.162;2024-03-02T02:20:12;5.80;99.90
43810;DHT22;29440;48.208;11.162;2024-03-02T02:22:37;5.80;99.90
43810;DHT22;29440;48.208;11.162;2024-03-02T02:25:03;5.80;99.90
43810;DHT22;29440;48.208;11.162;2024-03-02T02:27:28;5.80;99.90
43810;DHT22;29440;48.208;11.162;2024-03-02T02:29:54;5.80;99.90
43810;DHT22;29440;48.208;11.162;2024-03-02T02:32:21;5.80;99.90
43810;DHT22;29440;48.208;11.162;2024-03-02T02:34:47;5.80;99.90
43810;DHT22;29440;48.208;11.162;2024-03-02T02:37:17;5.80;99.90
43810;DHT22;29440;48.208;11.162;2024-03-02T02:39:43;5.80;99.90
43810;DHT22;29440;48.208;11.162;2024-03-02T02:42:09;5.80;99.90
43810;DHT22;29440;48.208;11.162;2024-03-02T02:44:35;5.80;99.90
43810;DHT22;29440;48.208;11.162;2024-03-02T02:47:00;5.70;99.90
43810;DHT22;29440;48.208;11.162;2024-03-02T02:49:26;5.80;99.90
43810;DHT22;29440;48.208;11.162;2024-03-02T02:51:52;5.80;99.90
43810;DHT22;29440;48.208;11.162;2024-03-02T02:54:18;5.80;99.90
43810;DHT22;29440;48.208;11.162;2024-03-02T02:56:43;5.70;99.90
43810;DHT22;29440;48.208;11.162;2024-03-02T02:59:09;5.70;99.90
43810;DHT22;29440;48.208;11.162;2024-03-02T03:01:35;5.70;99.90
43810;DHT22;29440;48.208;11.162;2024-03-02T03:04:00;5.70;99.90
43810;DHT22;29440;48.208;11.162;2024-03-02T03:06:26;5.70;99.90
43810;DHT22;29440;48.208;11.162;2024-03-02T03:08:51;5.80;99.90
43810;DHT22;29440;48.208;11.162;2024-03-02T03:11:17;5.80;99.90
43810;DHT22;29440;48.208;11.162;2024-03-02T03:13:42;5.80;99.90
43810;DHT22;29440;48.208;11.162;2024-03-02T03:16:08;5.80;99.90
43810;DHT22;29440;48.208;11.162;2024-03-02T03:18:33;5.80;99.90
43810;DHT22;29440;48.208;11.162;2024-03-02T03:20:59;5.70;99.90
43810;DHT22;29440;48.208;11.162;2024-03-02T03:23:25;5.80;99.90
43810;DHT22;29440;48.208;11.162;2024-03-02T03:25:51;5.80;99.90
43810;DHT22;29440;48.208;11.162;2024-03-02T03:28:16;5.70;99.90
43810;DHT22;29440;48.208;11.162;2024-03-02T03:30:43;5.70;99.90
43810;DHT22;29440;48.208;11.162;2024-03-02T03:33:08;5.70;99.90
43810;DHT22;29440;48.208;11.162;2024-03-02T03:35:34;5.70;99.90
43810;DHT22;29440;48.208;11.162;2024-03-02T03:38:00;5.70;99.90
43810;DHT22;29440;48.208;11.162;2024-03-02T03:40:28;5.70;99.90
43810;DHT22;29440;48.208;11.162;2024-03-02T03:42:54;5.70;99.90
43810;DHT22;29440;48.208;11.162;2024-03-02T03:45:21;5.70;99.90
43810;DHT22;29440;48.208;11.162;2024-03-02T03:47:47;5.70;99.90
43810;DHT22;29440;48.208;11.162;2024-03-02T03:50:12;5.90;99.90
43810;DHT22;29440;48.208;11.162;2024-03-02T03:52:38;5.70;99.90
43810;DHT22;29440;48.208;11.162;2024-03-02T03:55:04;5.70;99.90
43810;DHT22;29440;48.208;11.162;2024-03-02T03:57:33;5.70;99.90
43810;DHT22;29440;48.208;11.162;2024-03-02T03:59:59;5.80;99.90
43810;DHT22;29440;48.208;11.162;2024-03-02T04:02:25;5.70;99.90
43810;DHT22;29440;48.208;11.162;2024-03-02T04:04:51;5.90;99.90
43810;DHT22;29440;48.208;11.162;2024-03-02T04:07:17;5.70;99.90
43810;DHT22;29440;48.208;11.162;2024-03-02T04:09:42;5.70;99.90
43810;DHT22;29440;48.208;11.162;2024-03-02T04:12:08;5.70;99.90
43810;DHT22;29440;48.208;11.162;2024-03-02T04:14:34;5.80;99.90
43810;DHT22;29440;48.208;11.162;2024-03-02T04:16:59;5.70;99.90
43810;DHT22;29440;48.208;11.162;2024-03-02T04:19:25;5.70;99.90
43810;DHT22;29440;48.208;11.162;2024-03-02T04:21:51;5.70;99.90
43810;DHT22;29440;48.208;11.162;2024-03-02T04:24:16;5.70;99.90
43810;DHT22;29440;48.208;11.162;2024-03-02T04:26:42;5.70;99.90
43810;DHT22;29440;48.208;11.162;2024-03-02T04:29:08;5.70;99.90
43810;DHT22;29440;48.208;11.162;2024-03-02T04:31:33;5.70;99.90
43810;DHT22;29440;48.208;11.162;2024-03-02T04:33:59;5.70;99.90
43810;DHT22;29440;48.208;11.162;2024-03-02T04:36:24;5.60;99.90
43810;DHT22;29440;48.208;11.162;2024-03-02T04:38:50;5.70;99.90
43810;DHT22;29440;48.208;11.162;2024-03-02T04:41:16;5.70;99.90
43810;DHT22;29440;48.208;11.162;2024-03-02T04:43:42;5.70;99.90
43810;DHT22;29440;48.208;11.162;2024-03-02T04:46:08;5.80;99.90
43810;DHT22;29440;48.208;11.162;2024-03-02T04:48:33;5.80;99.90
43810;DHT22;29440;48.208;11.162;2024-03-02T04:50:59;5.80;99.90
43810;DHT22;29440;48.208;11.162;2024-03-02T04:53:25;5.90;99.90
43810;DHT22;29440;48.208;11.162;2024-03-02T04:55:51;5.80;99.90
43810;DHT22;29440;48.208;11.162;2024-03-02T04:58:19;5.80;99.90
43810;DHT22;29440;48.208;11.162;2024-03-02T05:00:44;5.80;99.90
43810;DHT22;29440;48.208;11.162;2024-03-02T05:03:12;5.80;99.90
43810;DHT22;29440;48.208;11.162;2024-03-02T05:05:38;5.80;99.90
43810;DHT22;29440;48.208;11.162;2024-03-02T05:08:04;5.80;99.90
43810;DHT22;29440;48.208;11.162;2024-03-02T05:10:30;5.80;99.90
43810;DHT22;29440;48.208;11.162;2024-03-02T05:12:56;5.80;99.90
43810;DHT22;29440;48.208;11.162;2024-03-02T05:15:25;5.80;99.90
43810;DHT22;29440;48.208;11.162;2024-03-02T05:17:51;5.80;99.90
43810;DHT22;29440;48.208;11.162;2024-03-02T05:20:16;5.90;99.90
43810;DHT22;29440;48.208;11.162;2024-03-02T05:22:42;5.90;99.90
43810;DHT22;29440;48.208;11.162;2024-03-02T05:25:08;5.80;99.90
43810;DHT22;29440;48.208;11.162;2024-03-02T05:27:35;5.80;99.90
43810;DHT22;29440;48.208;11.162;2024-03-02T05:30:00;5.80;99.90
43810;DHT22;29440;48.208;11.162;2024-03-02T05:32:26;5.80;99.90
43810;DHT22;29440;48.208;11.162;2024-03-02T05:34:52;5.80;99.90
43810;DHT22;29440;48.208;11.162;2024-03-02T05:37:18;5.70;99.90
43810;DHT22;29440;48.208;11.162;2024-03-02T05:40:06;5.70;99.90
43810;DHT22;29440;48.208;11.162;2024-03-02T05:42:32;5.70;99.90
43810;DHT22;29440;48.208;11.162;2024-03-02T05:44:57;5.70;99.90
43810;DHT22;29440;48.208;11.162;2024-03-02T05:47:23;5.70;99.90
43810;DHT22;29440;48.208;11.162;2024-03-02T05:49:49;5.70;99.90
43810;DHT22;29440;48.208;11.162;2024-03-02T05:52:14;5.70;99.90
43810;DHT22;29440;48.208;11.162;2024-03-02T05:54:40;5.60;99.90
43810;DHT22;29440;48.208;11.162;2024-03-02T05:57:05;5.60;99.90
43810;DHT22;29440;48.208;11.162;2024-03-02T05:59:52;5.60;99.90
43810;DHT22;29440;48.208;11.162;2024-03-02T06:02:19;5.60;99.90
43810;DHT22;29440;48.208;11.162;2024-03-02T06:04:44;5.60;99.90
43810;DHT22;29440;48.208;11.162;2024-03-02T06:07:10;5.60;99.90
43810;DHT22;29440;48.208;11.162;2024-03-02T06:09:35;5.60;99.90
43810;DHT22;29440;48.208;11.162;2024-03-02T06:12:01;5.60;99.90
43810;DHT22;29440;48.208;11.162;2024-03-02T06:14:26;5.60;99.90
43810;DHT22;29440;48.208;11.162;2024-03-02T06:16:52;5.60;99.90
43810;DHT22;29440;48.208;11.162;2024-03-02T06:19:17;5.60;99.90
43810;DHT22;29440;48.208;11.162;2024-03-02T06:21:43;5.50;99.90
43810;DHT22;29440;48.208;11.162;2024-03-02T06:24:08;5.50;99.90
43810;DHT22;29440;48.208;11.162;2024-03-02T06:26:34;5.50;99.90
43810;DHT22;29440;48.208;11.162;2024-03-02T06:29:00;5.50;99.90
43810;DHT22;29440;48.208;11.162;2024-03-02T06:31:27;5.50;99.90
43810;DHT22;29440;48.208;11.162;2024-03-02T06:33:53;5.50;99.90
43810;DHT22;29440;48.208;11.162;2024-03-02T06:36:18;5.50;99.90
43810;DHT22;29440;48.208;11.162;2024-03-02T06:38:44;5.50;99.90
43810;DHT22;29440;48.208;11.162;2024-03-02T06:41:09;5.50;99.90
43810;DHT22;29440;48.208;11.162;2024-03-02T06:43:35;5.60;99.90
43810;DHT22;29440;48.208;11.162;2024-03-02T06:46:00;5.60;99.90
43810;DHT22;29440;48.208;11.162;2024-03-02T06:48:26;5.60;99.90
43810;DHT22;29440;48.208;11.162;2024-03-02T06:50:54;5.60;99.90
43810;DHT22;29440;48.208;11.162;2024-03-02T06:53:20;5.70;99.90
43810;DHT22;29440;48.208;11.162;2024-03-02T06:55:46;5.80;99.90
43810;DHT22;29440;48.208;11.162;2024-03-02T06:58:13;5.90;99.90
43810;DHT22;29440;48.208;11.162;2024-03-02T07:00:40;5.90;99.90
43810;DHT22;29440;48.208;11.162;2024-03-02T07:03:06;6.00;99.90
43810;DHT22;29440;48.208;11.162;2024-03-02T07:05:31;6.30;99.90
43810;DHT22;29440;48.208;11.162;2024-03-02T07:07:57;6.60;99.90
43810;DHT22;29440;48.208;11.162;2024-03-02T07:10:22;7.00;99.90
43810;DHT22;29440;48.208;11.162;2024-03-02T07:12:48;7.30;99.90
43810;DHT22;29440;48.208;11.162;2024-03-02T07:15:14;7.60;99.90
43810;DHT22;29440;48.208;11.162;2024-03-02T07:18:09;7.90;99.90
43810;DHT22;29440;48.208;11.162;2024-03-02T07:21:10;8.30;99.90
43810;DHT22;29440;48.208;11.162;2024-03-02T07:23:36;8.90;99.90
43810;DHT22;29440;48.208;11.162;2024-03-02T07:26:01;9.50;99.90
43810;DHT22;29440;48.208;11.162;2024-03-02T07:28:27;10.20;99.90
43810;DHT22;29440;48.208;11.162;2024-03-02T07:31:01;11.00;99.90
43810;DHT22;29440;48.208;11.162;2024-03-02T07:33:27;11.60;99.90
43810;DHT22;29440;48.208;11.162;2024-03-02T07:35:54;12.20;99.90
43810;DHT22;29440;48.208;11.162;2024-03-02T07:38:20;12.50;99.90
43810;DHT22;29440;48.208;11.162;2024-03-02T07:40:45;12.90;99.90
43810;DHT22;29440;48.208;11.162;2024-03-02T07:43:11;13.40;99.90
43810;DHT22;29440;48.208;11.162;2024-03-02T07:45:36;13.70;99.90
43810;DHT22;29440;48.208;11.162;2024-03-02T07:48:02;13.90;99.90
43810;DHT22;29440;48.208;11.162;2024-03-02T07:50:30;14.20;99.90
43810;DHT22;29440;48.208;11.162;2024-03-02T07:52:56;14.50;99.90
43810;DHT22;29440;48.208;11.162;2024-03-02T07:55:22;14.70;99.90
43810;DHT22;29440;48.208;11.162;2024-03-02T07:57:49;14.50;99.90
43810;DHT22;29440;48.208;11.162;2024-03-02T08:00:15;14.60;99.90
43810;DHT22;29440;48.208;11.162;2024-03-02T08:02:41;14.90;99.90
43810;DHT22;29440;48.208;11.162;2024-03-02T08:05:09;15.00;99.90
43810;DHT22;29440;48.208;11.162;2024-03-02T08:07:35;15.30;99.90
43810;DHT22;29440;48.208;11.162;2024-03-02T08:10:01;15.60;99.90
43810;DHT22;29440;48.208;11.162;2024-03-02T08:12:26;16.10;99.90
43810;DHT22;29440;48.208;11.162;2024-03-02T08:14:52;16.60;99.90
43810;DHT22;29440;48.208;11.162;2024-03-02T08:17:17;17.00;99.90
43810;DHT22;29440;48.208;11.162;2024-03-02T08:19:43;17.20;99.90
43810;DHT22;29440;48.208;11.162;2024-03-02T08:22:09;17.50;99.90
43810;DHT22;29440;48.208;11.162;2024-03-02T08:24:35;17.90;99.90
43810;DHT22;29440;48.208;11.162;2024-03-02T08:27:01;18.00;99.90
43810;DHT22;29440;48.208;11.162;2024-03-02T08:29:27;17.60;99.90
43810;DHT22;29440;48.208;11.162;2024-03-02T08:31:54;18.00;99.90
43810;DHT22;29440;48.208;11.162;2024-03-02T08:34:19;18.20;99.90
43810;DHT22;29440;48.208;11.162;2024-03-02T08:36:46;18.20;99.90
43810;DHT22;29440;48.208;11.162;2024-03-02T08:39:12;18.20;99.90
43810;DHT22;29440;48.208;11.162;2024-03-02T08:41:43;18.40;99.90
43810;DHT22;29440;48.208;11.162;2024-03-02T08:44:09;18.20;99.90
43810;DHT22;29440;48.208;11.162;2024-03-02T08:46:35;18.00;99.90
43810;DHT22;29440;48.208;11.162;2024-03-02T08:49:01;17.90;99.90
43810;DHT22;29440;48.208;11.162;2024-03-02T08:51:26;17.80;99.90
43810;DHT22;29440;48.208;11.162;2024-03-02T08:53:52;17.50;99.90
43810;DHT22;29440;48.208;11.162;2024-03-02T08:56:17;17.40;99.90
43810;DHT22;29440;48.208;11.162;2024-03-02T08:58:43;17.00;99.90
43810;DHT22;29440;48.208;11.162;2024-03-02T09:01:10;16.70;99.90
43810;DHT22;29440;48.208;11.162;2024-03-02T09:03:36;16.80;99.90
43810;DHT22;29440;48.208;11.162;2024-03-02T09:06:02;16.70;99.90
43810;DHT22;29440;48.208;11.162;2024-03-02T09:08:28;16.50;99.90
43810;DHT22;29440;48.208;11.162;2024-03-02T09:10:54;16.50;99.90
43810;DHT22;29440;48.208;11.162;2024-03-02T09:13:20;16.30;99.90
43810;DHT22;29440;48.208;11.162;2024-03-02T09:15:46;16.00;99.90
43810;DHT22;29440;48.208;11.162;2024-03-02T09:18:12;15.60;99.90
43810;DHT22;29440;48.208;11.162;2024-03-02T09:20:37;15.30;99.90
43810;DHT22;29440;48.208;11.162;2024-03-02T09:23:03;15.10;99.90
43810;DHT22;29440;48.208;11.162;2024-03-02T09:25:28;14.90;99.90
43810;DHT22;29440;48.208;11.162;2024-03-02T09:27:54;14.60;99.90
43810;DHT22;29440;48.208;11.162;2024-03-02T09:30:22;14.30;99.90
43810;DHT22;29440;48.208;11.162;2024-03-02T09:32:51;14.00;99.90
43810;DHT22;29440;48.208;11.162;2024-03-02T09:35:16;13.90;99.90
43810;DHT22;29440;48.208;11.162;2024-03-02T09:37:42;13.70;99.90
43810;DHT22;29440;48.208;11.162;2024-03-02T09:40:10;13.40;99.90
43810;DHT22;29440;48.208;11.162;2024-03-02T09:42:36;13.10;99.90
43810;DHT22;29440;48.208;11.162;2024-03-02T09:45:02;12.90;99.90
43810;DHT22;29440;48.208;11.162;2024-03-02T09:47:28;12.70;99.90
43810;DHT22;29440;48.208;11.162;2024-03-02T09:49:54;12.50;99.90
43810;DHT22;29440;48.208;11.162;2024-03-02T09:52:22;12.60;99.90
43810;DHT22;29440;48.208;11.162;2024-03-02T09:54:49;12.40;99.90
43810;DHT22;29440;48.208;11.162;2024-03-02T09:57:15;12.40;99.90
43810;DHT22;29440;48.208;11.162;2024-03-02T09:59:41;12.30;99.90
43810;DHT22;29440;48.208;11.162;2024-03-02T10:02:06;12.30;99.90
43810;DHT22;29440;48.208;11.162;2024-03-02T10:04:33;12.30;99.90
43810;DHT22;29440;48.208;11.162;2024-03-02T10:07:16;12.30;99.90
43810;DHT22;29440;48.208;11.162;2024-03-02T10:09:42;12.20;99.90
43810;DHT22;29440;48.208;11.162;2024-03-02T10:12:09;12.10;99.90
43810;DHT22;29440;48.208;11.162;2024-03-02T10:14:35;12.00;99.90
43810;DHT22;29440;48.208;11.162;2024-03-02T10:17:06;12.00;99.90
43810;DHT22;29440;48.208;11.162;2024-03-02T10:19:33;11.90;99.90
43810;DHT22;29440;48.208;11.162;2024-03-02T10:22:00;11.80;99.90
43810;DHT22;29440;48.208;11.162;2024-03-02T10:24:28;11.80;99.90
43810;DHT22;29440;48.208;11.162;2024-03-02T10:26:59;11.90;99.90
43810;DHT22;29440;48.208;11.162;2024-03-02T10:29:25;11.90;99.90
43810;DHT22;29440;48.208;11.162;2024-03-02T10:31:54;11.80;99.90
43810;DHT22;29440;48.208;11.162;2024-03-02T10:34:21;11.90;99.90
43810;DHT22;29440;48.208;11.162;2024-03-02T10:36:47;12.00;99.90
43810;DHT22;29440;48.208;11.162;2024-03-02T10:39:14;12.00;99.90
43810;DHT22;29440;48.208;11.162;2024-03-02T10:41:42;12.00;99.90
43810;DHT22;29440;48.208;11.162;2024-03-02T10:44:09;11.90;99.90
43810;DHT22;29440;48.208;11.162;2024-03-02T10:46:36;11.80;99.90
43810;DHT22;29440;48.208;11.162;2024-03-02T10:49:04;11.80;99.90
43810;DHT22;29440;48.208;11.162;2024-03-02T10:51:31;11.80;99.90
43810;DHT22;29440;48.208;11.162;2024-03-02T10:54:01;11.90;99.90
43810;DHT22;29440;48.208;11.162;2024-03-02T10:56:40;11.80;99.90
43810;DHT22;29440;48.208;11.162;2024-03-02T10:59:31;11.80;99.90
43810;DHT22;29440;48.208;11.162;2024-03-02T11:01:59;11.70;99.90
43810;DHT22;29440;48.208;11.162;2024-03-02T11:04:29;11.70;99.90
43810;DHT22;29440;48.208;11.162;2024-03-02T11:07:08;11.70;99.90
43810;DHT22;29440;48.208;11.162;2024-03-02T11:09:38;11.60;99.90
43810;DHT22;29440;48.208;11.162;2024-03-02T11:12:12;11.60;99.90
43810;DHT22;29440;48.208;11.162;2024-03-02T11:14:41;11.60;99.90
43810;DHT22;29440;48.208;11.162;2024-03-02T11:17:11;11.50;99.90
43810;DHT22;29440;48.208;11.162;2024-03-02T11:19:39;11.60;99.90
43810;DHT22;29440;48.208;11.162;2024-03-02T11:22:06;11.60;99.90
43810;DHT22;29440;48.208;11.162;2024-03-02T11:24:32;11.60;99.90
43810;DHT22;29440;48.208;11.162;2024-03-02T11:27:02;11.60;99.90
43810;DHT22;29440;48.208;11.162;2024-03-02T11:32:14;11.70;99.90
43810;DHT22;29440;48.208;11.162;2024-03-02T11:34:42;11.70;99.90
43810;DHT22;29440;48.208;11.162;2024-03-02T11:37:12;11.70;99.90
43810;DHT22;29440;48.208;11.162;2024-03-02T11:39:39;11.80;99.90
43810;DHT22;29440;48.208;11.162;2024-03-02T11:42:08;11.70;99.90
43810;DHT22;29440;48.208;11.162;2024-03-02T11:44:35;11.80;99.90
43810;DHT22;29440;48.208;11.162;2024-03-02T11:47:05;11.70;99.90
43810;DHT22;29440;48.208;11.162;2024-03-02T11:49:41;11.70;99.90
43810;DHT22;29440;48.208;11.162;2024-03-02T11:52:09;11.80;99.90
43810;DHT22;29440;48.208;11.162;2024-03-02T11:54:37;11.70;99.90
43810;DHT22;29440;48.208;11.162;2024-03-02T11:57:09;11.80;99.90
43810;DHT22;29440;48.208;11.162;2024-03-02T11:59:34;11.70;99.90
43810;DHT22;29440;48.208;11.162;2024-03-02T12:02:26;11.80;99.90
43810;DHT22;29440;48.208;11.162;2024-03-02T12:04:51;11.90;99.90
43810;DHT22;29440;48.208;11.162;2024-03-02T12:07:23;11.90;99.90
43810;DHT22;29440;48.208;11.162;2024-03-02T12:09:59;11.90;99.90
43810;DHT22;29440;48.208;11.162;2024-03-02T12:12:24;11.90;99.90
43810;DHT22;29440;48.208;11.162;2024-03-02T12:14:51;11.90;99.90
43810;DHT22;29440;48.208;11.162;2024-03-02T12:17:17;11.90;99.90
43810;DHT22;29440;48.208;11.162;2024-03-02T12:19:43;12.00;99.90
43810;DHT22;29440;48.208;11.162;2024-03-02T12:22:09;12.00;99.90
43810;DHT22;29440;48.208;11.162;2024-03-02T12:24:35;12.00;99.90
43810;DHT22;29440;48.208;11.162;2024-03-02T12:27:01;12.10;99.90
43810;DHT22;29440;48.208;11.162;2024-03-02T12:29:26;12.00;99.90
43810;DHT22;29440;48.208;11.162;2024-03-02T12:31:53;12.10;99.90
43810;DHT22;29440;48.208;11.162;2024-03-02T12:34:18;12.30;99.90
43810;DHT22;29440;48.208;11.162;2024-03-02T12:36:46;12.30;99.90
43810;DHT22;29440;48.208;11.162;2024-03-02T12:39:14;12.30;99.90
43810;DHT22;29440;48.208;11.162;2024-03-02T12:41:40;12.40;99.90
43810;DHT22;29440;48.208;11.162;2024-03-02T12:44:06;12.60;99.90
43810;DHT22;29440;48.208;11.162;2024-03-02T12:46:32;12.70;99.90
43810;DHT22;29440;48.208;11.162;2024-03-02T12:48:58;12.80;99.90
43810;DHT22;29440;48.208;11.162;2024-03-02T12:51:27;12.90;99.90
43810;DHT22;29440;48.208;11.162;2024-03-02T12:53:57;13.00;99.90
43810;DHT22;29440;48.208;11.162;2024-03-02T12:56:24;13.00;99.90
43810;DHT22;29440;48.208;11.162;2024-03-02T12:58:54;13.10;99.90
43810;DHT22;29440;48.208;11.162;2024-03-02T13:01:20;13.20;99.90
43810;DHT22;29440;48.208;11.162;2024-03-02T13:03:47;13.20;99.90
43810;DHT22;29440;48.208;11.162;2024-03-02T13:06:13;13.20;99.90
43810;DHT22;29440;48.208;11.162;2024-03-02T13:08:39;13.20;99.90
43810;DHT22;29440;48.208;11.162;2024-03-02T13:11:05;13.30;99.90
43810;DHT22;29440;48.208;11.162;2024-03-02T13:13:32;13.30;99.90
43810;DHT22;29440;48.208;11.162;2024-03-02T13:15:58;13.20;99.90
43810;DHT22;29440;48.208;11.162;2024-03-02T13:18:24;13.30;99.90
43810;DHT22;29440;48.208;11.162;2024-03-02T13:20:49;13.30;99.90
43810;DHT22;29440;48.208;11.162;2024-03-02T13:23:15;13.20;99.90
43810;DHT22;29440;48.208;11.162;2024-03-02T13:25:41;13.20;99.90
43810;DHT22;29440;48.208;11.162;2024-03-02T13:28:07;13.30;99.90
43810;DHT22;29440;48.208;11.162;2024-03-02T13:30:33;13.30;99.90
43810;DHT22;29440;48.208;11.162;2024-03-02T13:32:58;13.30;99.90
43810;DHT22;29440;48.208;11.162;2024-03-02T13:35:24;13.20;99.90
43810;DHT22;29440;48.208;11.162;2024-03-02T13:37:49;13.20;99.90
43810;DHT22;29440;48.208;11.162;2024-03-02T13:40:15;13.30;99.90
43810;DHT22;29440;48.208;11.162;2024-03-02T13:42:48;13.10;99.90
43810;DHT22;29440;48.208;11.162;2024-03-02T13:45:14;13.10;99.90
43810;DHT22;29440;48.208;11.162;2024-03-02T13:47:40;13.10;99.90
43810;DHT22;29440;48.208;11.162;2024-03-02T13:50:06;13.20;99.90
43810;DHT22;29440;48.208;11.162;2024-03-02T13:52:32;13.10;99.90
43810;DHT22;29440;48.208;11.162;2024-03-02T13:54:58;13.20;99.90
43810;DHT22;29440;48.208;11.162;2024-03-02T13:57:23;13.00;99.90
43810;DHT22;29440;48.208;11.162;2024-03-02T13:59:49;13.00;99.90
43810;DHT22;29440;48.208;11.162;2024-03-02T14:02:15;13.10;99.90
43810;DHT22;29440;48.208;11.162;2024-03-02T14:04:41;13.00;99.90
43810;DHT22;29440;48.208;11.162;2024-03-02T14:07:07;13.10;99.90
43810;DHT22;29440;48.208;11.162;2024-03-02T14:09:32;13.20;99.90
43810;DHT22;29440;48.208;11.162;2024-03-02T14:11:58;13.10;99.90
43810;DHT22;29440;48.208;11.162;2024-03-02T14:14:26;13.10;99.90
43810;DHT22;29440;48.208;11.162;2024-03-02T14:16:53;13.10;99.90
43810;DHT22;29440;48.208;11.162;2024-03-02T14:19:19;13.10;99.90
43810;DHT22;29440;48.208;11.162;2024-03-02T14:21:45;13.10;99.90
43810;DHT22;29440;48.208;11.162;2024-03-02T14:24:11;13.00;99.90
43810;DHT22;29440;48.208;11.162;2024-03-02T14:26:55;13.00;99.90
43810;DHT22;29440;48.208;11.162;2024-03-02T14:29:23;13.00;99.90
43810;DHT22;29440;48.208;11.162;2024-03-02T14:31:48;12.90;99.90
43810;DHT22;29440;48.208;11.162;2024-03-02T14:34:14;12.90;99.90
43810;DHT22;29440;48.208;11.162;2024-03-02T14:36:41;12.90;99.90
43810;DHT22;29440;48.208;11.162;2024-03-02T14:39:08;13.20;99.90
43810;DHT22;29440;48.208;11.162;2024-03-02T14:41:38;12.90;99.90
43810;DHT22;29440;48.208;11.162;2024-03-02T14:44:04;13.00;99.90
43810;DHT22;29440;48.208;11.162;2024-03-02T14:46:30;13.00;99.90
43810;DHT22;29440;48.208;11.162;2024-03-02T14:48:56;12.90;99.90
43810;DHT22;29440;48.208;11.162;2024-03-02T14:51:21;12.90;99.90
43810;DHT22;29440;48.208;11.162;2024-03-02T14:53:47;12.90;99.90
43810;DHT22;29440;48.208;11.162;2024-03-02T14:56:12;12.90;99.90
43810;DHT22;29440;48.208;11.162;2024-03-02T14:58:41;12.90;99.90
43810;DHT22;29440;48.208;11.162;2024-03-02T15:01:06;12.80;99.90
43810;DHT22;29440;48.208;11.162;2024-03-02T15:03:32;12.80;99.90
43810;DHT22;29440;48.208;11.162;2024-03-02T15:05:58;12.80;99.90
43810;DHT22;29440;48.208;11.162;2024-03-02T15:08:24;12.80;99.90
43810;DHT22;29440;48.208;11.162;2024-03-02T15:10:50;12.70;99.90
43810;DHT22;29440;48.208;11.162;2024-03-02T15:13:15;12.60;99.90
43810;DHT22;29440;48.208;11.162;2024-03-02T15:15:41;12.60;99.90
43810;DHT22;29440;48.208;11.162;2024-03-02T15:18:07;12.60;99.90
43810;DHT22;29440;48.208;11.162;2024-03-02T15:20:33;12.60;99.90
43810;DHT22;29440;48.208;11.162;2024-03-02T15:22:59;12.60;99.90
43810;DHT22;29440;48.208;11.162;2024-03-02T15:25:24;12.50;99.90